sensor_id;sensor_type;location;lat;lon;timestamp;P1;durP1;ratioP1;P2;durP2;ratioP2
11823;SDS011;5969;50.780;7.726;2023-02-28T00:01:05;5.05;;;2.92;;
11823;SDS011;5969;50.780;7.726;2023-02-28T00:03:33;4.60;;;2.58;;
11823;SDS011;5969;50.780;7.726;2023-02-28T00:06:01;4.78;;;3.28;;
11823;SDS011;5969;50.780;7.726;2023-02-28T00:08:28;6.28;;;3.70;;
11823;SDS011;5969;50.780;7.726;2023-02-28T00:10:55;5.68;;;3.10;;
11823;SDS011;5969;50.780;7.726;2023-02-28T00:13:22;5.05;;;2.88;;
11823;SDS011;5969;50.780;7.726;2023-02-28T00:15:57;3.83;;;2.83;;
11823;SDS011;5969;50.780;7.726;2023-02-28T00:18:25;3.47;;;2.35;;
11823;SDS011;5969;50.780;7.726;2023-02-28T00:20:53;3.13;;;2.20;;
11823;SDS011;5969;50.780;7.726;2023-02-28T00:23:20;7.93;;;2.20;;
11823;SDS011;5969;50.780;7.726;2023-02-28T00:25:47;6.90;;;2.63;;
11823;SDS011;5969;50.780;7.726;2023-02-28T00:28:14;4.55;;;2.40;;
11823;SDS011;5969;50.780;7.726;2023-02-28T00:30:41;3.50;;;1.92;;
11823;SDS011;5969;50.780;7.726;2023-02-28T00:33:07;2.22;;;1.92;;
11823;SDS011;5969;50.780;7.726;2023-02-28T00:35:34;3.13;;;2.40;;
11823;SDS011;5969;50.780;7.726;2023-02-28T00:38:02;3.08;;;2.25;;
11823;SDS011;5969;50.780;7.726;2023-02-28T00:40:29;4.63;;;2.20;;
11823;SDS011;5969;50.780;7.726;2023-02-28T00:42:56;4.38;;;2.20;;
11823;SDS011;5969;50.780;7.726;2023-02-28T00:45:23;6.57;;;2.72;;
11823;SDS011;5969;50.780;7.726;2023-02-28T00:47:50;2.92;;;2.22;;
11823;SDS011;5969;50.780;7.726;2023-02-28T00:50:17;2.30;;;1.90;;
11823;SDS011;5969;50.780;7.726;2023-02-28T00:52:43;2.85;;;2.08;;
11823;SDS011;5969;50.780;7.726;2023-02-28T00:55:12;4.35;;;2.05;;
11823;SDS011;5969;50.780;7.726;2023-02-28T00:57:39;2.63;;;2.13;;
11823;SDS011;5969;50.780;7.726;2023-02-28T01:00:06;7.47;;;2.60;;
11823;SDS011;5969;50.780;7.726;2023-02-28T01:02:34;2.83;;;2.13;;
11823;SDS011;5969;50.780;7.726;2023-02-28T01:05:01;3.00;;;2.20;;
11823;SDS011;5969;50.780;7.726;2023-02-28T01:07:27;5.65;;;2.42;;
11823;SDS011;5969;50.780;7.726;2023-02-28T01:09:54;3.70;;;2.38;;
11823;SDS011;5969;50.780;7.726;2023-02-28T01:12:22;5.00;;;2.38;;
11823;SDS011;5969;50.780;7.726;2023-02-28T01:14:49;3.80;;;2.40;;
11823;SDS011;5969;50.780;7.726;2023-02-28T01:17:16;3.22;;;2.33;;
11823;SDS011;5969;50.780;7.726;2023-02-28T01:19:43;5.88;;;2.60;;
11823;SDS011;5969;50.780;7.726;2023-02-28T01:22:09;3.25;;;2.05;;
11823;SDS011;5969;50.780;7.726;2023-02-28T01:24:37;4.32;;;2.40;;
11823;SDS011;5969;50.780;7.726;2023-02-28T01:27:03;3.45;;;2.15;;
11823;SDS011;5969;50.780;7.726;2023-02-28T01:29:31;3.13;;;2.10;;
11823;SDS011;5969;50.780;7.726;2023-02-28T01:31:58;3.03;;;2.20;;
11823;SDS011;5969;50.780;7.726;2023-02-28T01:34:25;2.55;;;1.83;;
11823;SDS011;5969;50.780;7.726;2023-02-28T01:36:52;3.45;;;2.50;;
11823;SDS011;5969;50.780;7.726;2023-02-28T01:39:19;4.50;;;2.10;;
11823;SDS011;5969;50.780;7.726;2023-02-28T01:41:45;4.53;;;2.20;;
11823;SDS011;5969;50.780;7.726;2023-02-28T01:47:17;4.00;;;2.10;;
11823;SDS011;5969;50.780;7.726;2023-02-28T01:49:44;2.63;;;1.88;;
11823;SDS011;5969;50.780;7.726;2023-02-28T01:52:11;3.70;;;1.98;;
11823;SDS011;5969;50.780;7.726;2023-02-28T01:54:43;2.78;;;2.05;;
11823;SDS011;5969;50.780;7.726;2023-02-28T01:57:13;2.22;;;2.00;;
11823;SDS011;5969;50.780;7.726;2023-02-28T01:59:43;2.80;;;2.20;;
11823;SDS011;5969;50.780;7.726;2023-02-28T02:02:15;2.22;;;1.70;;
11823;SDS011;5969;50.780;7.726;2023-02-28T02:04:51;2.58;;;2.00;;
11823;SDS011;5969;50.780;7.726;2023-02-28T02:07:22;2.53;;;1.73;;
11823;SDS011;5969;50.780;7.726;2023-02-28T02:09:56;2.75;;;1.75;;
11823;SDS011;5969;50.780;7.726;2023-02-28T02:12:29;2.47;;;1.88;;
11823;SDS011;5969;50.780;7.726;2023-02-28T02:15:07;2.67;;;1.80;;
11823;SDS011;5969;50.780;7.726;2023-02-28T02:17:41;3.17;;;2.10;;
11823;SDS011;5969;50.780;7.726;2023-02-28T02:26:19;1.85;;;1.75;;
11823;SDS011;5969;50.780;7.726;2023-02-28T02:29:34;3.38;;;2.50;;
11823;SDS011;5969;50.780;7.726;2023-02-28T02:32:13;2.95;;;2.15;;
11823;SDS011;5969;50.780;7.726;2023-02-28T02:34:57;2.67;;;1.90;;
11823;SDS011;5969;50.780;7.726;2023-02-28T02:37:30;3.08;;;2.15;;
11823;SDS011;5969;50.780;7.726;2023-02-28T02:40:04;5.20;;;2.30;;
11823;SDS011;5969;50.780;7.726;2023-02-28T02:42:41;5.32;;;2.38;;
11823;SDS011;5969;50.780;7.726;2023-02-28T02:45:14;3.75;;;2.40;;
11823;SDS011;5969;50.780;7.726;2023-02-28T02:47:45;3.58;;;2.40;;
11823;SDS011;5969;50.780;7.726;2023-02-28T02:50:15;2.83;;;2.00;;
11823;SDS011;5969;50.780;7.726;2023-02-28T02:52:46;4.13;;;2.17;;
11823;SDS011;5969;50.780;7.726;2023-02-28T02:55:17;2.00;;;1.80;;
11823;SDS011;5969;50.780;7.726;2023-02-28T02:57:47;3.10;;;2.17;;
11823;SDS011;5969;50.780;7.726;2023-02-28T03:00:17;3.25;;;2.10;;
11823;SDS011;5969;50.780;7.726;2023-02-28T03:02:46;2.65;;;1.98;;
11823;SDS011;5969;50.780;7.726;2023-02-28T03:05:20;4.97;;;2.28;;
11823;SDS011;5969;50.780;7.726;2023-02-28T03:07:51;3.38;;;2.20;;
11823;SDS011;5969;50.780;7.726;2023-02-28T03:10:28;2.47;;;2.00;;
11823;SDS011;5969;50.780;7.726;2023-02-28T03:13:11;2.88;;;1.90;;
11823;SDS011;5969;50.780;7.726;2023-02-28T03:15:49;2.50;;;2.17;;
11823;SDS011;5969;50.780;7.726;2023-02-28T03:18:24;3.85;;;2.20;;
11823;SDS011;5969;50.780;7.726;2023-02-28T03:21:01;3.95;;;2.00;;
11823;SDS011;5969;50.780;7.726;2023-02-28T03:23:35;4.72;;;2.30;;
11823;SDS011;5969;50.780;7.726;2023-02-28T03:26:11;5.85;;;2.42;;
11823;SDS011;5969;50.780;7.726;2023-02-28T03:28:43;3.03;;;2.35;;
11823;SDS011;5969;50.780;7.726;2023-02-28T03:31:18;3.33;;;2.50;;
11823;SDS011;5969;50.780;7.726;2023-02-28T03:33:49;2.70;;;2.33;;
11823;SDS011;5969;50.780;7.726;2023-02-28T03:36:22;3.85;;;2.45;;
11823;SDS011;5969;50.780;7.726;2023-02-28T03:38:54;2.22;;;2.03;;
11823;SDS011;5969;50.780;7.726;2023-02-28T03:41:27;3.67;;;2.25;;
11823;SDS011;5969;50.780;7.726;2023-02-28T03:44:00;2.58;;;2.17;;
11823;SDS011;5969;50.780;7.726;2023-02-28T03:46:32;4.45;;;2.53;;
11823;SDS011;5969;50.780;7.726;2023-02-28T03:49:03;3.05;;;2.25;;
11823;SDS011;5969;50.780;7.726;2023-02-28T03:51:36;4.47;;;2.50;;
11823;SDS011;5969;50.780;7.726;2023-02-28T03:54:07;2.17;;;1.95;;
11823;SDS011;5969;50.780;7.726;2023-02-28T03:56:39;2.35;;;2.15;;
11823;SDS011;5969;50.780;7.726;2023-02-28T03:59:10;3.70;;;2.70;;
11823;SDS011;5969;50.780;7.726;2023-02-28T04:01:41;3.53;;;2.13;;
11823;SDS011;5969;50.780;7.726;2023-02-28T04:04:10;5.60;;;2.15;;
11823;SDS011;5969;50.780;7.726;2023-02-28T04:06:39;4.90;;;2.30;;
11823;SDS011;5969;50.780;7.726;2023-02-28T04:09:07;2.83;;;2.10;;
11823;SDS011;5969;50.780;7.726;2023-02-28T04:11:37;2.97;;;2.55;;
11823;SDS011;5969;50.780;7.726;2023-02-28T04:14:05;3.60;;;2.55;;
11823;SDS011;5969;50.780;7.726;2023-02-28T04:16:34;3.97;;;2.53;;
11823;SDS011;5969;50.780;7.726;2023-02-28T04:19:02;3.15;;;2.30;;
11823;SDS011;5969;50.780;7.726;2023-02-28T04:21:30;2.80;;;2.50;;
11823;SDS011;5969;50.780;7.726;2023-02-28T04:23:59;3.97;;;2.40;;
11823;SDS011;5969;50.780;7.726;2023-02-28T04:26:27;3.72;;;2.40;;
11823;SDS011;5969;50.780;7.726;2023-02-28T04:28:55;2.88;;;2.20;;
11823;SDS011;5969;50.780;7.726;2023-02-28T04:31:22;3.97;;;2.50;;
11823;SDS011;5969;50.780;7.726;2023-02-28T04:33:49;2.40;;;2.20;;
11823;SDS011;5969;50.780;7.726;2023-02-28T04:36:16;2.58;;;2.22;;
11823;SDS011;5969;50.780;7.726;2023-02-28T04:38:44;3.63;;;2.40;;
11823;SDS011;5969;50.780;7.726;2023-02-28T04:41:12;3.22;;;2.42;;
11823;SDS011;5969;50.780;7.726;2023-02-28T04:43:39;4.32;;;2.63;;
11823;SDS011;5969;50.780;7.726;2023-02-28T04:46:06;2.95;;;2.17;;
11823;SDS011;5969;50.780;7.726;2023-02-28T04:48:35;3.85;;;2.55;;
11823;SDS011;5969;50.780;7.726;2023-02-28T04:51:03;3.47;;;2.38;;
11823;SDS011;5969;50.780;7.726;2023-02-28T04:53:31;4.22;;;2.28;;
11823;SDS011;5969;50.780;7.726;2023-02-28T04:55:58;3.10;;;2.25;;
11823;SDS011;5969;50.780;7.726;2023-02-28T04:58:27;2.50;;;2.25;;
11823;SDS011;5969;50.780;7.726;2023-02-28T05:00:55;2.72;;;2.35;;
11823;SDS011;5969;50.780;7.726;2023-02-28T05:03:28;3.22;;;2.30;;
11823;SDS011;5969;50.780;7.726;2023-02-28T05:05:55;3.38;;;2.53;;
11823;SDS011;5969;50.780;7.726;2023-02-28T05:08:22;3.38;;;2.53;;
11823;SDS011;5969;50.780;7.726;2023-02-28T05:10:48;2.78;;;2.53;;
11823;SDS011;5969;50.780;7.726;2023-02-28T05:13:15;3.20;;;2.60;;
11823;SDS011;5969;50.780;7.726;2023-02-28T05:15:43;3.72;;;3.05;;
11823;SDS011;5969;50.780;7.726;2023-02-28T05:18:10;3.15;;;2.70;;
11823;SDS011;5969;50.780;7.726;2023-02-28T05:20:37;3.92;;;2.85;;
11823;SDS011;5969;50.780;7.726;2023-02-28T05:23:05;3.67;;;2.67;;
11823;SDS011;5969;50.780;7.726;2023-02-28T05:25:31;4.40;;;3.22;;
11823;SDS011;5969;50.780;7.726;2023-02-28T05:27:58;3.17;;;2.75;;
11823;SDS011;5969;50.780;7.726;2023-02-28T05:30:25;2.55;;;2.28;;
11823;SDS011;5969;50.780;7.726;2023-02-28T05:32:53;3.65;;;2.53;;
11823;SDS011;5969;50.780;7.726;2023-02-28T05:35:20;2.38;;;2.17;;
11823;SDS011;5969;50.780;7.726;2023-02-28T05:37:46;2.55;;;2.33;;
11823;SDS011;5969;50.780;7.726;2023-02-28T05:40:13;2.97;;;2.50;;
11823;SDS011;5969;50.780;7.726;2023-02-28T05:42:40;3.47;;;2.47;;
11823;SDS011;5969;50.780;7.726;2023-02-28T05:45:07;2.90;;;2.60;;
11823;SDS011;5969;50.780;7.726;2023-02-28T05:47:35;6.25;;;2.97;;
11823;SDS011;5969;50.780;7.726;2023-02-28T05:50:04;3.53;;;2.95;;
11823;SDS011;5969;50.780;7.726;2023-02-28T05:52:32;5.03;;;2.65;;
11823;SDS011;5969;50.780;7.726;2023-02-28T05:54:58;2.90;;;2.60;;
11823;SDS011;5969;50.780;7.726;2023-02-28T05:57:25;3.05;;;2.53;;
11823;SDS011;5969;50.780;7.726;2023-02-28T05:59:52;3.65;;;3.00;;
11823;SDS011;5969;50.780;7.726;2023-02-28T06:02:18;3.75;;;2.83;;
11823;SDS011;5969;50.780;7.726;2023-02-28T06:04:45;2.80;;;2.60;;
11823;SDS011;5969;50.780;7.726;2023-02-28T06:07:14;3.55;;;2.50;;
11823;SDS011;5969;50.780;7.726;2023-02-28T06:09:42;3.25;;;2.63;;
11823;SDS011;5969;50.780;7.726;2023-02-28T06:12:09;6.25;;;3.17;;
11823;SDS011;5969;50.780;7.726;2023-02-28T06:14:36;3.92;;;3.17;;
11823;SDS011;5969;50.780;7.726;2023-02-28T06:17:03;3.75;;;3.28;;
11823;SDS011;5969;50.780;7.726;2023-02-28T06:19:30;3.17;;;2.78;;
11823;SDS011;5969;50.780;7.726;2023-02-28T06:21:57;5.28;;;3.67;;
11823;SDS011;5969;50.780;7.726;2023-02-28T06:24:26;4.03;;;3.42;;
11823;SDS011;5969;50.780;7.726;2023-02-28T06:26:53;5.32;;;3.72;;
11823;SDS011;5969;50.780;7.726;2023-02-28T06:29:20;3.95;;;3.33;;
11823;SDS011;5969;50.780;7.726;2023-02-28T06:31:47;3.42;;;3.05;;
11823;SDS011;5969;50.780;7.726;2023-02-28T06:34:14;4.07;;;2.90;;
11823;SDS011;5969;50.780;7.726;2023-02-28T06:36:41;4.60;;;3.00;;
11823;SDS011;5969;50.780;7.726;2023-02-28T06:39:08;3.30;;;2.70;;
11823;SDS011;5969;50.780;7.726;2023-02-28T06:41:37;3.70;;;2.75;;
11823;SDS011;5969;50.780;7.726;2023-02-28T06:44:05;3.47;;;3.00;;
11823;SDS011;5969;50.780;7.726;2023-02-28T06:46:32;6.38;;;3.35;;
11823;SDS011;5969;50.780;7.726;2023-02-28T06:48:58;7.72;;;4.15;;
11823;SDS011;5969;50.780;7.726;2023-02-28T06:51:25;8.10;;;5.35;;
11823;SDS011;5969;50.780;7.726;2023-02-28T06:53:52;9.20;;;5.63;;
11823;SDS011;5969;50.780;7.726;2023-02-28T06:56:19;8.57;;;5.63;;
11823;SDS011;5969;50.780;7.726;2023-02-28T06:58:47;8.20;;;5.00;;
11823;SDS011;5969;50.780;7.726;2023-02-28T07:01:14;6.90;;;4.03;;
11823;SDS011;5969;50.780;7.726;2023-02-28T07:03:42;5.07;;;3.63;;
11823;SDS011;5969;50.780;7.726;2023-02-28T07:06:08;4.65;;;3.38;;
11823;SDS011;5969;50.780;7.726;2023-02-28T07:08:35;3.30;;;2.95;;
11823;SDS011;5969;50.780;7.726;2023-02-28T07:11:02;3.40;;;2.70;;
11823;SDS011;5969;50.780;7.726;2023-02-28T07:13:30;4.30;;;3.15;;
11823;SDS011;5969;50.780;7.726;2023-02-28T07:15:59;3.42;;;2.85;;
11823;SDS011;5969;50.780;7.726;2023-02-28T07:18:27;3.70;;;3.20;;
11823;SDS011;5969;50.780;7.726;2023-02-28T07:20:53;4.35;;;3.28;;
11823;SDS011;5969;50.780;7.726;2023-02-28T07:23:21;6.05;;;3.45;;
11823;SDS011;5969;50.780;7.726;2023-02-28T07:25:48;3.65;;;3.30;;
11823;SDS011;5969;50.780;7.726;2023-02-28T07:28:16;3.60;;;3.03;;
11823;SDS011;5969;50.780;7.726;2023-02-28T07:30:43;5.55;;;3.22;;
11823;SDS011;5969;50.780;7.726;2023-02-28T07:33:11;4.00;;;3.63;;
11823;SDS011;5969;50.780;7.726;2023-02-28T07:35:38;4.03;;;3.50;;
11823;SDS011;5969;50.780;7.726;2023-02-28T07:38:04;4.20;;;3.28;;
11823;SDS011;5969;50.780;7.726;2023-02-28T07:40:32;3.63;;;3.08;;
11823;SDS011;5969;50.780;7.726;2023-02-28T07:42:59;3.72;;;3.05;;
11823;SDS011;5969;50.780;7.726;2023-02-28T07:45:27;4.40;;;3.33;;
11823;SDS011;5969;50.780;7.726;2023-02-28T07:47:56;3.15;;;2.85;;
11823;SDS011;5969;50.780;7.726;2023-02-28T07:50:24;4.47;;;3.03;;
11823;SDS011;5969;50.780;7.726;2023-02-28T07:52:54;4.10;;;2.92;;
11823;SDS011;5969;50.780;7.726;2023-02-28T07:55:21;3.85;;;2.95;;
11823;SDS011;5969;50.780;7.726;2023-02-28T07:57:47;3.60;;;2.88;;
11823;SDS011;5969;50.780;7.726;2023-02-28T08:00:14;3.70;;;2.80;;
11823;SDS011;5969;50.780;7.726;2023-02-28T08:02:41;5.85;;;3.00;;
11823;SDS011;5969;50.780;7.726;2023-02-28T08:05:08;3.08;;;2.65;;
11823;SDS011;5969;50.780;7.726;2023-02-28T08:07:37;3.90;;;2.58;;
11823;SDS011;5969;50.780;7.726;2023-02-28T08:10:04;3.55;;;2.75;;
11823;SDS011;5969;50.780;7.726;2023-02-28T08:12:32;3.22;;;2.90;;
11823;SDS011;5969;50.780;7.726;2023-02-28T08:14:58;3.55;;;2.33;;
11823;SDS011;5969;50.780;7.726;2023-02-28T08:17:25;3.63;;;2.53;;
11823;SDS011;5969;50.780;7.726;2023-02-28T08:19:52;4.22;;;2.40;;
11823;SDS011;5969;50.780;7.726;2023-02-28T08:22:19;2.40;;;2.20;;
11823;SDS011;5969;50.780;7.726;2023-02-28T08:24:47;4.20;;;2.92;;
11823;SDS011;5969;50.780;7.726;2023-02-28T08:27:14;2.78;;;2.22;;
11823;SDS011;5969;50.780;7.726;2023-02-28T08:29:41;2.97;;;2.60;;
11823;SDS011;5969;50.780;7.726;2023-02-28T08:32:07;2.33;;;2.08;;
11823;SDS011;5969;50.780;7.726;2023-02-28T08:34:34;4.15;;;2.65;;
11823;SDS011;5969;50.780;7.726;2023-02-28T08:37:01;4.75;;;3.20;;
11823;SDS011;5969;50.780;7.726;2023-02-28T08:39:28;4.95;;;3.15;;
11823;SDS011;5969;50.780;7.726;2023-02-28T08:41:57;5.28;;;4.20;;
11823;SDS011;5969;50.780;7.726;2023-02-28T08:44:23;6.40;;;4.38;;
11823;SDS011;5969;50.780;7.726;2023-02-28T08:46:50;5.13;;;3.75;;
11823;SDS011;5969;50.780;7.726;2023-02-28T08:49:17;3.25;;;2.80;;
11823;SDS011;5969;50.780;7.726;2023-02-28T08:51:44;4.38;;;3.10;;
11823;SDS011;5969;50.780;7.726;2023-02-28T08:54:10;3.80;;;3.25;;
11823;SDS011;5969;50.780;7.726;2023-02-28T08:56:38;3.42;;;2.95;;
11823;SDS011;5969;50.780;7.726;2023-02-28T08:59:08;4.03;;;2.70;;
11823;SDS011;5969;50.780;7.726;2023-02-28T09:01:35;3.42;;;2.75;;
11823;SDS011;5969;50.780;7.726;2023-02-28T09:04:02;3.63;;;2.25;;
11823;SDS011;5969;50.780;7.726;2023-02-28T09:06:28;2.75;;;2.28;;
11823;SDS011;5969;50.780;7.726;2023-02-28T09:08:56;3.20;;;2.13;;
11823;SDS011;5969;50.780;7.726;2023-02-28T09:11:24;2.40;;;2.15;;
11823;SDS011;5969;50.780;7.726;2023-02-28T09:13:51;2.17;;;1.77;;
11823;SDS011;5969;50.780;7.726;2023-02-28T09:16:19;2.00;;;1.60;;
11823;SDS011;5969;50.780;7.726;2023-02-28T09:18:46;2.65;;;1.95;;
11823;SDS011;5969;50.780;7.726;2023-02-28T09:21:14;2.60;;;1.90;;
11823;SDS011;5969;50.780;7.726;2023-02-28T09:23:43;2.90;;;1.80;;
11823;SDS011;5969;50.780;7.726;2023-02-28T09:26:13;1.65;;;1.55;;
11823;SDS011;5969;50.780;7.726;2023-02-28T09:28:40;1.63;;;1.45;;
11823;SDS011;5969;50.780;7.726;2023-02-28T09:31:10;2.53;;;1.75;;
11823;SDS011;5969;50.780;7.726;2023-02-28T09:33:41;2.47;;;1.98;;
11823;SDS011;5969;50.780;7.726;2023-02-28T09:36:07;1.75;;;1.63;;
11823;SDS011;5969;50.780;7.726;2023-02-28T09:38:34;2.22;;;1.70;;
11823;SDS011;5969;50.780;7.726;2023-02-28T09:41:02;3.30;;;1.75;;
11823;SDS011;5969;50.780;7.726;2023-02-28T09:43:36;2.55;;;1.40;;
11823;SDS011;5969;50.780;7.726;2023-02-28T09:46:08;2.65;;;1.90;;
11823;SDS011;5969;50.780;7.726;2023-02-28T09:48:43;2.25;;;1.63;;
11823;SDS011;5969;50.780;7.726;2023-02-28T09:51:15;2.35;;;1.80;;
11823;SDS011;5969;50.780;7.726;2023-02-28T09:53:53;2.80;;;1.70;;
11823;SDS011;5969;50.780;7.726;2023-02-28T09:56:20;2.58;;;1.60;;
11823;SDS011;5969;50.780;7.726;2023-02-28T09:58:53;2.60;;;1.50;;
11823;SDS011;5969;50.780;7.726;2023-02-28T10:01:24;2.35;;;1.60;;
11823;SDS011;5969;50.780;7.726;2023-02-28T10:03:58;1.52;;;1.42;;
11823;SDS011;5969;50.780;7.726;2023-02-28T10:06:30;2.05;;;1.85;;
11823;SDS011;5969;50.780;7.726;2023-02-28T10:09:04;2.78;;;1.98;;
11823;SDS011;5969;50.780;7.726;2023-02-28T10:11:35;2.05;;;1.55;;
11823;SDS011;5969;50.780;7.726;2023-02-28T10:14:04;1.58;;;1.48;;
11823;SDS011;5969;50.780;7.726;2023-02-28T10:16:40;2.60;;;1.90;;
11823;SDS011;5969;50.780;7.726;2023-02-28T10:19:13;2.67;;;1.80;;
11823;SDS011;5969;50.780;7.726;2023-02-28T10:21:43;2.20;;;1.75;;
11823;SDS011;5969;50.780;7.726;2023-02-28T10:24:19;2.67;;;1.90;;
11823;SDS011;5969;50.780;7.726;2023-02-28T10:26:47;2.25;;;1.85;;
11823;SDS011;5969;50.780;7.726;2023-02-28T10:29:14;3.67;;;1.80;;
11823;SDS011;5969;50.780;7.726;2023-02-28T10:31:41;2.60;;;1.80;;
11823;SDS011;5969;50.780;7.726;2023-02-28T10:34:10;2.83;;;1.77;;
11823;SDS011;5969;50.780;7.726;2023-02-28T10:36:39;1.83;;;1.60;;
11823;SDS011;5969;50.780;7.726;2023-02-28T10:42:01;2.65;;;1.75;;
11823;SDS011;5969;50.780;7.726;2023-02-28T10:44:28;2.00;;;1.65;;
11823;SDS011;5969;50.780;7.726;2023-02-28T10:46:55;2.80;;;1.80;;
11823;SDS011;5969;50.780;7.726;2023-02-28T10:49:24;3.85;;;1.90;;
11823;SDS011;5969;50.780;7.726;2023-02-28T10:51:54;3.30;;;1.92;;
11823;SDS011;5969;50.780;7.726;2023-02-28T10:54:23;2.35;;;1.70;;
11823;SDS011;5969;50.780;7.726;2023-02-28T10:57:11;2.65;;;2.00;;
11823;SDS011;5969;50.780;7.726;2023-02-28T10:59:43;2.42;;;1.70;;
11823;SDS011;5969;50.780;7.726;2023-02-28T11:02:29;2.25;;;1.75;;
11823;SDS011;5969;50.780;7.726;2023-02-28T11:04:59;2.25;;;1.52;;
11823;SDS011;5969;50.780;7.726;2023-02-28T11:07:26;2.05;;;1.77;;
11823;SDS011;5969;50.780;7.726;2023-02-28T11:09:54;1.85;;;1.40;;
11823;SDS011;5969;50.780;7.726;2023-02-28T11:12:23;2.30;;;1.80;;
11823;SDS011;5969;50.780;7.726;2023-02-28T11:14:53;3.47;;;1.80;;
11823;SDS011;5969;50.780;7.726;2023-02-28T11:17:23;2.83;;;1.83;;
11823;SDS011;5969;50.780;7.726;2023-02-28T11:19:53;3.05;;;2.10;;
11823;SDS011;5969;50.780;7.726;2023-02-28T11:22:24;2.17;;;1.75;;
11823;SDS011;5969;50.780;7.726;2023-02-28T11:24:55;2.20;;;2.00;;
11823;SDS011;5969;50.780;7.726;2023-02-28T11:27:25;2.00;;;1.80;;
11823;SDS011;5969;50.780;7.726;2023-02-28T11:30:14;2.10;;;1.90;;
11823;SDS011;5969;50.780;7.726;2023-02-28T11:32:53;2.83;;;2.13;;
11823;SDS011;5969;50.780;7.726;2023-02-28T11:35:21;3.28;;;2.10;;
11823;SDS011;5969;50.780;7.726;2023-02-28T11:37:53;2.40;;;2.03;;
11823;SDS011;5969;50.780;7.726;2023-02-28T11:40:21;1.90;;;1.80;;
11823;SDS011;5969;50.780;7.726;2023-02-28T11:42:57;1.80;;;1.63;;
11823;SDS011;5969;50.780;7.726;2023-02-28T11:48:31;1.95;;;1.85;;
11823;SDS011;5969;50.780;7.726;2023-02-28T11:51:10;2.40;;;1.90;;
11823;SDS011;5969;50.780;7.726;2023-02-28T11:53:47;2.22;;;2.03;;
11823;SDS011;5969;50.780;7.726;2023-02-28T11:56:25;2.55;;;1.80;;
11823;SDS011;5969;50.780;7.726;2023-02-28T11:59:04;2.53;;;2.00;;
11823;SDS011;5969;50.780;7.726;2023-02-28T12:01:45;2.50;;;2.30;;
11823;SDS011;5969;50.780;7.726;2023-02-28T12:04:34;2.20;;;2.00;;
11823;SDS011;5969;50.780;7.726;2023-02-28T12:07:08;2.53;;;2.08;;
11823;SDS011;5969;50.780;7.726;2023-02-28T12:09:44;2.50;;;2.00;;
11823;SDS011;5969;50.780;7.726;2023-02-28T12:12:21;2.15;;;1.95;;
11823;SDS011;5969;50.780;7.726;2023-02-28T12:14:58;2.13;;;1.92;;
11823;SDS011;5969;50.780;7.726;2023-02-28T12:17:55;2.15;;;1.95;;
11823;SDS011;5969;50.780;7.726;2023-02-28T12:20:40;2.30;;;2.00;;
11823;SDS011;5969;50.780;7.726;2023-02-28T12:23:20;2.03;;;1.77;;
11823;SDS011;5969;50.780;7.726;2023-02-28T12:26:01;3.35;;;2.20;;
11823;SDS011;5969;50.780;7.726;2023-02-28T12:28:35;2.30;;;2.10;;
11823;SDS011;5969;50.780;7.726;2023-02-28T12:31:09;2.65;;;2.13;;
11823;SDS011;5969;50.780;7.726;2023-02-28T12:33:40;2.25;;;2.05;;
11823;SDS011;5969;50.780;7.726;2023-02-28T12:36:11;2.35;;;2.10;;
11823;SDS011;5969;50.780;7.726;2023-02-28T12:38:44;2.55;;;1.90;;
11823;SDS011;5969;50.780;7.726;2023-02-28T12:41:15;2.90;;;2.10;;
11823;SDS011;5969;50.780;7.726;2023-02-28T12:43:46;2.05;;;1.92;;
11823;SDS011;5969;50.780;7.726;2023-02-28T12:46:19;2.35;;;2.00;;
11823;SDS011;5969;50.780;7.726;2023-02-28T12:48:50;2.35;;;2.15;;
11823;SDS011;5969;50.780;7.726;2023-02-28T12:51:21;2.35;;;2.10;;
11823;SDS011;5969;50.780;7.726;2023-02-28T12:53:52;3.08;;;2.10;;
11823;SDS011;5969;50.780;7.726;2023-02-28T12:56:29;3.00;;;2.40;;
11823;SDS011;5969;50.780;7.726;2023-02-28T13:05:13;2.28;;;2.13;;
11823;SDS011;5969;50.780;7.726;2023-02-28T13:11:23;3.03;;;2.42;;
11823;SDS011;5969;50.780;7.726;2023-02-28T13:14:03;2.65;;;2.45;;
11823;SDS011;5969;50.780;7.726;2023-02-28T13:16:47;2.90;;;2.60;;
11823;SDS011;5969;50.780;7.726;2023-02-28T13:19:26;3.80;;;2.70;;
11823;SDS011;5969;50.780;7.726;2023-02-28T13:21:55;3.72;;;2.80;;
11823;SDS011;5969;50.780;7.726;2023-02-28T13:24:43;2.60;;;2.40;;
11823;SDS011;5969;50.780;7.726;2023-02-28T13:27:31;3.25;;;2.95;;
11823;SDS011;5969;50.780;7.726;2023-02-28T13:30:23;3.60;;;3.30;;
11823;SDS011;5969;50.780;7.726;2023-02-28T13:33:22;2.50;;;2.30;;
11823;SDS011;5969;50.780;7.726;2023-02-28T13:36:00;3.78;;;3.45;;
11823;SDS011;5969;50.780;7.726;2023-02-28T13:38:51;3.33;;;2.75;;
11823;SDS011;5969;50.780;7.726;2023-02-28T13:44:25;3.10;;;2.78;;
11823;SDS011;5969;50.780;7.726;2023-02-28T13:49:56;4.03;;;2.95;;
11823;SDS011;5969;50.780;7.726;2023-02-28T13:52:43;3.97;;;3.30;;
11823;SDS011;5969;50.780;7.726;2023-02-28T13:55:24;3.28;;;2.97;;
11823;SDS011;5969;50.780;7.726;2023-02-28T13:58:18;3.88;;;3.10;;
11823;SDS011;5969;50.780;7.726;2023-02-28T14:00:59;4.30;;;3.20;;
11823;SDS011;5969;50.780;7.726;2023-02-28T14:03:41;3.92;;;2.75;;
11823;SDS011;5969;50.780;7.726;2023-02-28T14:06:25;3.55;;;3.20;;
11823;SDS011;5969;50.780;7.726;2023-02-28T14:08:56;3.15;;;2.85;;
11823;SDS011;5969;50.780;7.726;2023-02-28T14:11:26;2.83;;;2.50;;
11823;SDS011;5969;50.780;7.726;2023-02-28T14:13:56;2.78;;;2.50;;
11823;SDS011;5969;50.780;7.726;2023-02-28T14:16:23;3.08;;;2.78;;
11823;SDS011;5969;50.780;7.726;2023-02-28T14:18:55;2.70;;;2.50;;
11823;SDS011;5969;50.780;7.726;2023-02-28T14:21:26;3.42;;;2.75;;
11823;SDS011;5969;50.780;7.726;2023-02-28T14:32:58;2.83;;;2.63;;
11823;SDS011;5969;50.780;7.726;2023-02-28T14:35:44;3.92;;;3.10;;
11823;SDS011;5969;50.780;7.726;2023-02-28T14:38:21;3.10;;;2.80;;
11823;SDS011;5969;50.780;7.726;2023-02-28T14:40:51;2.70;;;2.50;;
11823;SDS011;5969;50.780;7.726;2023-02-28T14:43:20;3.63;;;2.95;;
11823;SDS011;5969;50.780;7.726;2023-02-28T14:45:49;2.65;;;2.42;;
11823;SDS011;5969;50.780;7.726;2023-02-28T14:48:19;2.80;;;2.60;;
11823;SDS011;5969;50.780;7.726;2023-02-28T14:50:51;3.15;;;2.55;;
11823;SDS011;5969;50.780;7.726;2023-02-28T14:53:21;3.40;;;2.75;;
11823;SDS011;5969;50.780;7.726;2023-02-28T14:55:51;2.70;;;2.42;;
11823;SDS011;5969;50.780;7.726;2023-02-28T14:58:21;3.35;;;2.58;;
11823;SDS011;5969;50.780;7.726;2023-02-28T15:00:51;2.72;;;2.42;;
11823;SDS011;5969;50.780;7.726;2023-02-28T15:03:20;5.25;;;2.75;;
11823;SDS011;5969;50.780;7.726;2023-02-28T15:05:52;2.80;;;2.60;;
11823;SDS011;5969;50.780;7.726;2023-02-28T15:08:21;3.00;;;2.70;;
11823;SDS011;5969;50.780;7.726;2023-02-28T15:10:53;2.45;;;2.25;;
11823;SDS011;5969;50.780;7.726;2023-02-28T15:13:22;3.70;;;2.38;;
11823;SDS011;5969;50.780;7.726;2023-02-28T15:15:53;2.50;;;2.30;;
11823;SDS011;5969;50.780;7.726;2023-02-28T15:18:24;3.65;;;2.45;;
11823;SDS011;5969;50.780;7.726;2023-02-28T15:21:07;3.60;;;2.72;;
11823;SDS011;5969;50.780;7.726;2023-02-28T15:23:41;2.63;;;2.42;;
11823;SDS011;5969;50.780;7.726;2023-02-28T15:26:14;5.18;;;2.58;;
11823;SDS011;5969;50.780;7.726;2023-02-28T15:28:43;2.53;;;2.33;;
11823;SDS011;5969;50.780;7.726;2023-02-28T15:31:18;4.70;;;2.65;;
11823;SDS011;5969;50.780;7.726;2023-02-28T15:33:52;4.65;;;2.40;;
11823;SDS011;5969;50.780;7.726;2023-02-28T15:36:20;2.75;;;2.45;;
11823;SDS011;5969;50.780;7.726;2023-02-28T15:38:54;2.80;;;2.60;;
11823;SDS011;5969;50.780;7.726;2023-02-28T15:41:23;3.58;;;2.83;;
11823;SDS011;5969;50.780;7.726;2023-02-28T15:46:58;4.43;;;3.05;;
11823;SDS011;5969;50.780;7.726;2023-02-28T15:49:27;3.65;;;2.65;;
11823;SDS011;5969;50.780;7.726;2023-02-28T15:51:56;3.28;;;2.90;;
11823;SDS011;5969;50.780;7.726;2023-02-28T15:54:28;3.67;;;2.80;;
11823;SDS011;5969;50.780;7.726;2023-02-28T15:57:00;4.95;;;2.72;;
11823;SDS011;5969;50.780;7.726;2023-02-28T15:59:33;3.65;;;3.35;;
11823;SDS011;5969;50.780;7.726;2023-02-28T16:02:04;5.78;;;3.70;;
11823;SDS011;5969;50.780;7.726;2023-02-28T16:04:54;8.90;;;7.22;;